Time;durP1;ratioP1;P1;durP2;ratioP2;P2;SDS_P1;SDS_P2;PMS_P1;PMS_P2;Temp;Humidity;BMP_temperature;BMP_pressure;BME280_temperature;BME280_humidity;BME280_pressure;Samples;Min_cycle;Max_cycle;Signal;HPM_P1;HPM_P2
2023/11/29 00:00:47;;;;;;;13.03;10.90;;;3.80;99.90;;;;;;5053257;28;20522;-89
2023/11/29 00:03:13;;;;;;;16.30;11.47;;;3.80;99.90;;;;;;5057606;28;20196;-87
2023/11/29 00:05:38;;;;;;;14.87;11.50;;;3.90;99.90;;;;;;5056863;28;20692;-90
2023/11/29 00:08:05;;;;;;;15.50;11.30;;;3.90;99.90;;;;;;5062361;28;20180;-89
2023/11/29 00:10:31;;;;;;;15.10;11.27;;;3.80;99.90;;;;;;5064406;28;20225;-88
2023/11/29 00:12:57;;;;;;;14.63;11.57;;;3.70;99.90;;;;;;5068158;28;20180;-90
2023/11/29 00:15:25;;;;;;;15.43;11.20;;;3.60;99.90;;;;;;5069998;28;20244;-89
2023/11/29 00:17:51;;;;;;;15.73;10.27;;;3.60;99.90;;;;;;5069715;28;20172;-90
2023/11/29 00:20:18;;;;;;;15.03;10.73;;;3.60;99.90;;;;;;5056577;28;20188;-90
2023/11/29 00:22:43;;;;;;;15.97;11.37;;;3.50;99.90;;;;;;5058384;28;20251;-90
2023/11/29 00:25:09;;;;;;;13.30;10.23;;;3.60;99.90;;;;;;5058291;28;20278;-90
2023/11/29 00:27:35;;;;;;;12.63;9.83;;;3.50;99.90;;;;;;5055880;28;20177;-88
2023/11/29 00:30:02;;;;;;;14.20;10.57;;;3.50;99.90;;;;;;5054884;28;20169;-91
2023/11/29 00:32:28;;;;;;;13.83;10.53;;;3.50;99.90;;;;;;5075268;28;20191;-89
2023/11/29 00:34:54;;;;;;;13.17;10.00;;;3.50;99.90;;;;;;5097015;28;20168;-86
2023/11/29 00:37:23;;;;;;;12.03;9.60;;;3.40;99.90;;;;;;5079327;28;20172;-89
2023/11/29 00:39:48;;;;;;;13.70;9.70;;;3.40;99.90;;;;;;5075810;28;20200;-87
2023/11/29 00:42:14;;;;;;;16.10;10.03;;;3.40;99.90;;;;;;5074482;28;20179;-86
2023/11/29 00:44:40;;;;;;;13.23;9.90;;;3.40;99.90;;;;;;5074298;28;20200;-90
2023/11/29 00:47:05;;;;;;;13.43;10.17;;;3.50;99.90;;;;;;5075155;28;20241;-90
2023/11/29 00:49:31;;;;;;;11.13;8.43;;;3.50;99.90;;;;;;5074419;28;20168;-88
2023/11/29 00:51:58;;;;;;;10.63;8.63;;;3.50;99.90;;;;;;5073166;28;20542;-87
2023/11/29 00:54:25;;;;;;;13.43;8.83;;;3.40;99.90;;;;;;5076483;28;20200;-89
2023/11/29 00:56:51;;;;;;;12.10;8.70;;;3.40;99.90;;;;;;5074656;28;20179;-91
2023/11/29 00:59:17;;;;;;;11.57;8.40;;;3.40;99.90;;;;;;5074850;28;20671;-90
2023/11/29 01:01:42;;;;;;;15.20;8.20;;;3.40;99.90;;;;;;5073999;28;20172;-90
2023/11/29 01:04:08;;;;;;;11.13;7.67;;;3.40;99.90;;;;;;5085902;28;20172;-88
2023/11/29 01:06:41;;;;;;;9.87;7.53;;;3.30;99.90;;;;;;5081300;28;20265;-88
2023/11/29 01:09:07;;;;;;;10.93;7.73;;;3.50;99.90;;;;;;5077479;28;20168;-89
2023/11/29 01:11:33;;;;;;;12.63;7.80;;;3.40;99.90;;;;;;5074755;28;20240;-89
2023/11/29 01:13:59;;;;;;;12.50;8.00;;;3.60;99.90;;;;;;5074851;28;20210;-87
2023/11/29 01:16:25;;;;;;;10.37;6.90;;;3.40;99.90;;;;;;5076823;28;20153;-87
2023/11/29 01:18:51;;;;;;;10.30;7.17;;;3.40;99.90;;;;;;5077057;28;20204;-85
2023/11/29 01:21:16;;;;;;;11.37;7.60;;;3.40;99.90;;;;;;5092112;28;20176;-83
2023/11/29 01:23:43;;;;;;;10.90;7.27;;;3.40;99.90;;;;;;5086543;28;20180;-86
2023/11/29 01:26:10;;;;;;;9.37;7.30;;;3.40;99.90;;;;;;5074822;28;20246;-89
2023/11/29 01:28:36;;;;;;;9.87;7.83;;;3.50;99.90;;;;;;5075226;28;20168;-90
2023/11/29 01:31:10;;;;;;;9.67;6.57;;;3.50;99.90;;;;;;5082079;28;20176;-90
2023/11/29 01:33:35;;;;;;;9.97;7.07;;;3.50;99.90;;;;;;5084182;28;20168;-90
2023/11/29 01:36:11;;;;;;;12.00;7.60;;;3.70;99.90;;;;;;5080586;28;20180;-81
2023/11/29 01:38:38;;;;;;;10.10;7.57;;;3.60;99.90;;;;;;5092684;28;20164;-91
2023/11/29 01:41:04;;;;;;;11.27;7.53;;;3.60;99.90;;;;;;5087338;28;20251;-91
2023/11/29 01:43:32;;;;;;;10.97;7.37;;;3.70;99.90;;;;;;5086591;28;20176;-89
2023/11/29 01:45:58;;;;;;;11.43;8.53;;;3.70;99.90;;;;;;5090608;28;20195;-90
2023/11/29 01:48:25;;;;;;;14.03;7.10;;;3.60;99.90;;;;;;5077408;28;20175;-89
2023/11/29 01:50:52;;;;;;;13.50;7.83;;;3.60;99.90;;;;;;5078312;28;20203;-89
2023/11/29 01:53:21;;;;;;;11.20;7.73;;;3.60;99.90;;;;;;5094249;28;20214;-86
2023/11/29 01:55:52;;;;;;;11.50;7.37;;;3.70;99.90;;;;;;5090966;28;20247;-90
2023/11/29 01:58:26;;;;;;;13.13;9.20;;;3.70;99.90;;;;;;5074166;28;20195;-91
2023/11/29 02:00:53;;;;;;;11.33;8.00;;;3.80;99.90;;;;;;5074999;28;20215;-92
2023/11/29 02:03:20;;;;;;;11.97;9.30;;;3.80;99.90;;;;;;5079012;28;20227;-87
2023/11/29 02:05:47;;;;;;;14.87;8.53;;;3.70;99.90;;;;;;5085351;28;20223;-90
2023/11/29 02:08:14;;;;;;;15.07;8.63;;;3.70;99.90;;;;;;5085046;28;20169;-88
2023/11/29 02:10:40;;;;;;;13.50;8.67;;;3.70;99.90;;;;;;5085758;28;20695;-89
2023/11/29 02:13:07;;;;;;;13.53;8.77;;;3.80;99.90;;;;;;5085839;28;20168;-84
2023/11/29 02:15:33;;;;;;;12.03;7.83;;;3.90;99.90;;;;;;5079090;28;20198;-90
2023/11/29 02:17:59;;;;;;;12.10;8.40;;;3.80;99.90;;;;;;5074918;28;20183;-89
2023/11/29 02:20:28;;;;;;;9.57;8.17;;;3.80;99.90;;;;;;5075057;28;20753;-88
2023/11/29 02:23:23;;;;;;;13.07;9.20;;;4.00;99.90;;;;;;5075355;28;20266;-90
2023/11/29 02:25:49;;;;;;;11.63;8.70;;;4.00;99.90;;;;;;5076980;28;20236;-88
2023/11/29 02:28:14;;;;;;;13.17;8.77;;;4.00;99.90;;;;;;5078462;28;20197;-84
2023/11/29 02:30:40;;;;;;;11.23;8.70;;;4.00;99.90;;;;;;5075596;28;20215;-86
2023/11/29 02:33:06;;;;;;;12.23;8.97;;;4.00;99.90;;;;;;5075584;28;20164;-82
2023/11/29 02:35:32;;;;;;;17.17;10.00;;;3.90;99.90;;;;;;5075795;28;20214;-87
2023/11/29 02:37:57;;;;;;;13.40;9.10;;;4.00;99.90;;;;;;5076577;28;20259;-84
2023/11/29 02:40:24;;;;;;;14.00;9.50;;;4.10;99.90;;;;;;5075218;28;20263;-83
2023/11/29 02:42:50;;;;;;;13.30;8.43;;;3.90;99.90;;;;;;5084365;28;20176;-83
2023/11/29 02:45:16;;;;;;;14.83;8.60;;;4.00;99.90;;;;;;5077563;28;20707;-82
2023/11/29 02:47:43;;;;;;;14.30;9.27;;;4.00;99.90;;;;;;5075424;28;20662;-84
2023/11/29 02:50:09;;;;;;;15.07;8.90;;;4.10;99.90;;;;;;5075617;28;20180;-82
2023/11/29 02:52:35;;;;;;;19.50;10.03;;;4.00;99.90;;;;;;5074808;28;20180;-84
2023/11/29 02:55:00;;;;;;;12.30;8.87;;;4.00;99.90;;;;;;5075443;28;20184;-84
2023/11/29 02:57:26;;;;;;;13.60;9.17;;;3.90;99.90;;;;;;5076349;28;20177;-85
2023/11/29 02:59:52;;;;;;;14.30;8.80;;;4.10;99.90;;;;;;5075159;28;20542;-85
2023/11/29 03:02:17;;;;;;;11.70;9.07;;;4.10;99.90;;;;;;5075077;28;20172;-82
2023/11/29 03:04:43;;;;;;;13.13;8.43;;;4.00;99.90;;;;;;5074895;28;20640;-84
2023/11/29 03:07:09;;;;;;;12.33;8.53;;;4.10;99.90;;;;;;5074414;28;20224;-84
2023/11/29 03:09:34;;;;;;;10.10;8.10;;;4.00;99.90;;;;;;5075867;28;20229;-83
2023/11/29 03:12:00;;;;;;;12.73;8.93;;;4.40;99.90;;;;;;5085474;28;20198;-82
2023/11/29 03:14:29;;;;;;;13.60;8.73;;;4.40;99.90;;;;;;5079555;28;20188;-84
2023/11/29 03:16:55;;;;;;;12.10;8.23;;;4.40;99.90;;;;;;5075130;28;20267;-83
2023/11/29 03:19:20;;;;;;;14.93;8.83;;;4.30;99.90;;;;;;5076761;28;20356;-84
2023/11/29 03:21:46;;;;;;;13.60;8.97;;;4.50;99.90;;;;;;5079593;28;20168;-88
2023/11/29 03:24:12;;;;;;;12.97;9.40;;;4.50;99.90;;;;;;5084400;28;20176;-89
2023/11/29 03:26:42;;;;;;;14.73;9.17;;;4.50;99.90;;;;;;5092265;28;20216;-88
2023/11/29 03:29:07;;;;;;;13.07;8.37;;;4.50;99.90;;;;;;5095796;28;20184;-87
2023/11/29 03:31:36;;;;;;;13.00;8.77;;;4.40;99.90;;;;;;5089210;28;20172;-89
2023/11/29 03:34:02;;;;;;;11.47;8.17;;;4.40;99.90;;;;;;5088243;28;20157;-92
2023/11/29 03:36:28;;;;;;;14.63;9.97;;;4.40;99.90;;;;;;5076212;28;20178;-91
2023/11/29 03:38:54;;;;;;;14.13;9.47;;;4.40;99.90;;;;;;5077921;28;20169;-90
2023/11/29 03:41:20;;;;;;;13.73;9.10;;;4.40;99.90;;;;;;5076137;28;20180;-90
2023/11/29 03:43:45;;;;;;;11.67;8.33;;;4.50;99.90;;;;;;5076686;28;20218;-89
2023/11/29 03:46:14;;;;;;;15.83;9.60;;;4.50;99.90;;;;;;5075786;28;20208;-90
2023/11/29 03:48:41;;;;;;;11.33;8.37;;;4.60;99.90;;;;;;5082381;28;20636;-89
2023/11/29 03:51:07;;;;;;;13.17;8.50;;;4.60;99.90;;;;;;5082055;28;20172;-90
2023/11/29 03:53:33;;;;;;;11.97;8.53;;;4.60;99.90;;;;;;5076370;28;20212;-90
2023/11/29 03:55:59;;;;;;;12.50;8.73;;;4.60;99.90;;;;;;5075175;28;20242;-90
2023/11/29 03:58:24;;;;;;;13.47;8.30;;;4.60;99.90;;;;;;5075909;28;20173;-90
2023/11/29 04:00:50;;;;;;;9.67;7.40;;;4.50;99.90;;;;;;5076062;28;20180;-89
2023/11/29 04:03:16;;;;;;;12.97;8.07;;;4.60;99.90;;;;;;5075780;28;20171;-91
2023/11/29 04:05:42;;;;;;;10.93;8.10;;;4.50;99.90;;;;;;5073952;28;20261;-85
2023/11/29 04:08:07;;;;;;;11.33;7.77;;;4.50;99.90;;;;;;5073171;28;20172;-82
2023/11/29 04:10:34;;;;;;;11.07;7.17;;;4.50;99.90;;;;;;5073519;28;20222;-83
2023/11/29 04:13:01;;;;;;;11.13;7.27;;;4.50;99.90;;;;;;5074117;28;20176;-82
2023/11/29 04:15:27;;;;;;;12.50;8.00;;;4.60;99.90;;;;;;5076457;28;20203;-81
2023/11/29 04:17:54;;;;;;;11.60;7.53;;;4.80;99.90;;;;;;5076885;28;20172;-90
2023/11/29 04:20:20;;;;;;;11.13;7.93;;;4.80;99.90;;;;;;5083851;28;20196;-87
2023/11/29 04:22:49;;;;;;;11.97;7.20;;;4.70;99.90;;;;;;5089319;28;20725;-90
2023/11/29 04:25:18;;;;;;;8.90;6.93;;;4.70;99.90;;;;;;5087560;28;20172;-88
2023/11/29 04:27:44;;;;;;;9.57;7.00;;;4.60;99.90;;;;;;5079369;28;20173;-88
2023/11/29 04:30:10;;;;;;;11.43;7.80;;;4.50;99.90;;;;;;5090142;28;20172;-87
2023/11/29 04:32:37;;;;;;;9.57;6.43;;;4.50;99.90;;;;;;5092925;28;20180;-88
2023/11/29 04:35:03;;;;;;;9.40;6.87;;;4.40;99.90;;;;;;5075480;28;20616;-90
2023/11/29 04:37:30;;;;;;;12.70;7.83;;;4.00;99.90;;;;;;5074240;28;20180;-91
2023/11/29 04:39:57;;;;;;;12.13;7.10;;;3.70;99.90;;;;;;5075672;28;20170;-89
2023/11/29 04:42:22;;;;;;;12.40;8.30;;;3.70;99.90;;;;;;5074323;28;20615;-82
2023/11/29 04:44:48;;;;;;;13.67;8.13;;;3.70;99.90;;;;;;5072004;28;20196;-82
2023/11/29 04:47:15;;;;;;;12.40;8.87;;;3.70;99.90;;;;;;5072530;28;20745;-83
2023/11/29 04:49:41;;;;;;;12.67;8.60;;;3.70;99.90;;;;;;5073622;28;20258;-82
2023/11/29 04:52:07;;;;;;;14.60;8.50;;;3.60;99.90;;;;;;5071488;28;20225;-84
2023/11/29 04:54:33;;;;;;;11.80;7.57;;;3.60;99.90;;;;;;5072250;28;20179;-83
2023/11/29 04:56:59;;;;;;;11.77;8.33;;;3.70;99.90;;;;;;5071891;28;20180;-87
2023/11/29 04:59:24;;;;;;;12.83;8.07;;;3.60;99.90;;;;;;5073472;28;20214;-84
2023/11/29 05:01:51;;;;;;;12.87;7.97;;;3.70;99.90;;;;;;5073949;28;20573;-88
2023/11/29 05:04:17;;;;;;;12.53;7.93;;;3.70;99.90;;;;;;5073028;28;20286;-86
2023/11/29 05:06:43;;;;;;;10.20;7.17;;;3.70;99.90;;;;;;5072514;28;20299;-83
2023/11/29 05:09:14;;;;;;;12.50;8.03;;;3.80;99.90;;;;;;5071546;28;20675;-85
2023/11/29 05:11:40;;;;;;;12.40;7.80;;;3.70;99.90;;;;;;5073173;28;20225;-89
2023/11/29 05:14:06;;;;;;;12.00;7.07;;;3.70;99.90;;;;;;5076874;28;20271;-87
2023/11/29 05:16:33;;;;;;;11.87;7.73;;;3.70;99.90;;;;;;5093524;28;20165;-84
2023/11/29 05:18:59;;;;;;;11.30;7.47;;;3.90;99.90;;;;;;5073118;28;20671;-85
2023/11/29 05:21:27;;;;;;;13.30;8.03;;;3.70;99.90;;;;;;5075176;28;20153;-90
2023/11/29 05:23:54;;;;;;;11.43;6.97;;;3.80;99.90;;;;;;5072422;28;20187;-88
2023/11/29 05:26:20;;;;;;;10.33;7.17;;;3.70;99.90;;;;;;5073812;28;20200;-88
2023/11/29 05:28:45;;;;;;;10.90;7.47;;;3.70;99.90;;;;;;5074902;28;20176;-87
2023/11/29 05:31:13;;;;;;;9.63;7.20;;;3.70;99.90;;;;;;5076272;28;20229;-84
2023/11/29 05:33:38;;;;;;;10.53;6.63;;;3.60;99.90;;;;;;5073685;28;20624;-84
2023/11/29 05:36:05;;;;;;;10.00;7.13;;;3.70;99.90;;;;;;5072163;28;20183;-83
2023/11/29 05:38:31;;;;;;;10.93;7.43;;;3.60;99.90;;;;;;5072287;28;20199;-84
2023/11/29 05:40:57;;;;;;;11.00;6.63;;;3.70;99.90;;;;;;5071509;28;20211;-85
2023/11/29 05:43:23;;;;;;;11.07;7.10;;;3.70;99.90;;;;;;5072481;28;20179;-83
2023/11/29 05:45:49;;;;;;;9.37;6.13;;;3.60;99.90;;;;;;5073685;28;20571;-82
2023/11/29 05:48:15;;;;;;;9.67;7.53;;;3.70;99.90;;;;;;5088025;28;20259;-82
2023/11/29 05:50:40;;;;;;;10.27;7.33;;;3.70;99.90;;;;;;5073785;28;20168;-83
2023/11/29 05:53:06;;;;;;;11.47;6.90;;;3.70;99.90;;;;;;5071978;28;20169;-85
2023/11/29 05:55:34;;;;;;;14.10;8.10;;;3.70;99.90;;;;;;5080657;28;20536;-84
2023/11/29 05:58:00;;;;;;;12.47;7.93;;;3.80;99.90;;;;;;5084061;28;20243;-90
2023/11/29 06:00:32;;;;;;;12.40;8.13;;;3.80;99.90;;;;;;5078558;28;20172;-88
2023/11/29 06:02:58;;;;;;;16.20;9.50;;;3.60;99.90;;;;;;5077013;28;20179;-90
2023/11/29 06:05:24;;;;;;;11.73;8.10;;;3.80;99.90;;;;;;5077311;28;20235;-89
2023/11/29 06:07:50;;;;;;;9.33;7.40;;;3.70;99.90;;;;;;5076930;28;20200;-83
2023/11/29 06:10:15;;;;;;;11.77;8.40;;;3.60;99.90;;;;;;5077315;28;20168;-84
2023/11/29 06:12:41;;;;;;;10.47;7.70;;;3.60;99.90;;;;;;5075627;28;20652;-83
2023/11/29 06:15:08;;;;;;;13.23;8.93;;;3.60;99.90;;;;;;5077199;28;20743;-83
2023/11/29 06:17:37;;;;;;;14.03;9.07;;;3.60;99.90;;;;;;5077295;28;20230;-84
2023/11/29 06:20:13;;;;;;;12.20;8.13;;;3.70;99.90;;;;;;5077302;28;20185;-84
2023/11/29 06:22:39;;;;;;;13.93;8.50;;;3.50;99.90;;;;;;5082214;28;20234;-81
2023/11/29 06:25:05;;;;;;;16.77;8.60;;;3.60;99.90;;;;;;5091542;28;20172;-81
2023/11/29 06:27:31;;;;;;;11.47;8.33;;;3.50;99.90;;;;;;5079827;28;20176;-83
2023/11/29 06:29:57;;;;;;;12.90;8.47;;;3.50;99.90;;;;;;5081528;28;20177;-80
2023/11/29 06:32:23;;;;;;;14.13;8.70;;;3.60;99.90;;;;;;5079677;28;20226;-83
2023/11/29 06:34:55;;;;;;;13.03;8.30;;;3.50;99.90;;;;;;5075892;28;20176;-83
2023/11/29 06:37:27;;;;;;;11.13;8.70;;;3.50;99.90;;;;;;5077072;28;20157;-86
2023/11/29 06:39:55;;;;;;;13.00;8.27;;;3.60;99.90;;;;;;5073480;28;20172;-83
2023/11/29 06:42:24;;;;;;;11.33;8.37;;;3.70;99.90;;;;;;5078492;28;20168;-84
2023/11/29 06:44:52;;;;;;;12.43;8.40;;;3.70;99.90;;;;;;5079729;28;20204;-84
2023/11/29 06:47:17;;;;;;;15.23;9.47;;;3.60;99.90;;;;;;5075446;28;20215;-84
2023/11/29 06:49:44;;;;;;;13.13;8.33;;;3.80;99.90;;;;;;5078527;28;20251;-84
2023/11/29 06:52:12;;;;;;;11.77;9.23;;;3.60;99.90;;;;;;5076971;28;20636;-84
2023/11/29 06:54:39;;;;;;;14.37;8.70;;;3.70;99.90;;;;;;5075622;28;20172;-86
2023/11/29 06:57:06;;;;;;;12.60;8.73;;;3.50;99.90;;;;;;5075727;28;20195;-84
2023/11/29 06:59:33;;;;;;;13.83;8.40;;;3.50;99.90;;;;;;5076620;28;20180;-84
2023/11/29 07:02:01;;;;;;;10.43;7.80;;;3.50;99.90;;;;;;5076231;28;20236;-84
2023/11/29 07:04:27;;;;;;;11.27;8.83;;;3.60;99.90;;;;;;5087151;28;20220;-83
2023/11/29 07:06:59;;;;;;;11.40;8.57;;;3.70;99.90;;;;;;5075739;28;20206;-84
2023/11/29 07:09:25;;;;;;;11.03;8.50;;;3.70;99.90;;;;;;5075728;28;20206;-86
2023/11/29 07:11:51;;;;;;;11.33;8.93;;;3.70;99.90;;;;;;5075184;28;20169;-85
2023/11/29 07:14:16;;;;;;;14.43;9.23;;;3.80;99.90;;;;;;5075042;28;20177;-85
2023/11/29 07:16:42;;;;;;;15.20;9.43;;;3.80;99.90;;;;;;5076078;28;20175;-84
2023/11/29 07:19:08;;;;;;;10.33;8.87;;;3.90;99.90;;;;;;5077773;28;20192;-89
2023/11/29 07:21:33;;;;;;;15.80;9.50;;;3.90;99.90;;;;;;5074498;28;20547;-85
2023/11/29 07:23:59;;;;;;;13.40;9.60;;;3.80;99.90;;;;;;5073936;28;20632;-87
2023/11/29 07:26:25;;;;;;;13.13;8.90;;;3.80;99.90;;;;;;5070222;28;20676;-87
2023/11/29 07:28:50;;;;;;;14.30;9.30;;;4.00;99.90;;;;;;5067533;28;20636;-84
2023/11/29 07:31:16;;;;;;;16.13;9.30;;;4.10;99.90;;;;;;5075938;28;20640;-87
2023/11/29 07:33:43;;;;;;;13.87;8.60;;;4.10;99.90;;;;;;5076051;28;20667;-86
2023/11/29 07:36:12;;;;;;;12.20;8.73;;;3.90;99.90;;;;;;5078637;28;20180;-87
2023/11/29 07:38:40;;;;;;;13.23;8.50;;;3.90;99.90;;;;;;5072170;28;20170;-85
2023/11/29 07:41:06;;;;;;;11.77;7.40;;;3.90;99.90;;;;;;5057048;28;20165;-87
2023/11/29 07:43:31;;;;;;;12.87;7.90;;;3.80;99.90;;;;;;5066143;28;20176;-87
2023/11/29 07:45:57;;;;;;;13.90;8.07;;;3.90;99.90;;;;;;5058864;28;20296;-86
2023/11/29 07:48:24;;;;;;;15.37;8.50;;;4.00;99.90;;;;;;5063651;28;20235;-86
2023/11/29 07:50:51;;;;;;;17.30;8.53;;;3.90;99.90;;;;;;5055573;28;20223;-87
2023/11/29 07:53:17;;;;;;;11.90;8.20;;;3.90;99.90;;;;;;5066997;28;20229;-86
2023/11/29 07:55:44;;;;;;;10.97;7.33;;;3.90;99.90;;;;;;5075387;28;20172;-85
2023/11/29 07:58:10;;;;;;;12.73;7.87;;;3.90;99.90;;;;;;5056600;28;20315;-85
2023/11/29 08:00:35;;;;;;;12.93;7.70;;;4.00;99.90;;;;;;5055317;28;20264;-85
2023/11/29 08:03:01;;;;;;;10.53;7.90;;;4.00;99.90;;;;;;5065993;28;20183;-85
2023/11/29 08:05:27;;;;;;;10.40;6.03;;;4.00;99.90;;;;;;5062476;28;20215;-85
2023/11/29 08:07:56;;;;;;;12.10;7.60;;;4.00;99.90;;;;;;5075921;28;20253;-85
2023/11/29 08:10:23;;;;;;;12.50;7.77;;;4.00;99.90;;;;;;5072446;28;20177;-84
2023/11/29 08:12:48;;;;;;;13.43;7.23;;;4.10;99.90;;;;;;5077279;28;20164;-86
2023/11/29 08:15:14;;;;;;;10.77;7.40;;;4.20;99.90;;;;;;5062384;28;20201;-85
2023/11/29 08:17:41;;;;;;;8.97;7.20;;;4.30;99.90;;;;;;5094150;28;20172;-86
2023/11/29 08:20:07;;;;;;;13.63;7.97;;;4.50;99.90;;;;;;5077868;28;20193;-86
2023/11/29 08:22:33;;;;;;;11.23;7.17;;;4.30;99.90;;;;;;5116768;28;20192;-87
2023/11/29 08:25:00;;;;;;;10.57;6.87;;;4.30;99.90;;;;;;5094965;28;20264;-85
2023/11/29 08:27:26;;;;;;;11.77;6.60;;;4.40;99.90;;;;;;5082891;28;20200;-85
2023/11/29 08:29:54;;;;;;;14.13;6.73;;;4.40;99.90;;;;;;5097472;28;20165;-87
2023/11/29 08:32:20;;;;;;;11.10;7.10;;;4.50;99.90;;;;;;5087615;28;20640;-85
2023/11/29 08:34:46;;;;;;;11.60;6.13;;;4.50;99.90;;;;;;5071878;28;20176;-87
2023/11/29 08:37:12;;;;;;;10.20;5.47;;;4.50;99.90;;;;;;5054928;28;20244;-87
2023/11/29 08:39:37;;;;;;;8.03;5.80;;;4.50;99.90;;;;;;5054473;28;20177;-85
2023/11/29 08:42:04;;;;;;;10.67;7.30;;;4.40;99.90;;;;;;5054368;28;20206;-87
2023/11/29 08:44:32;;;;;;;10.23;6.57;;;4.40;99.90;;;;;;5076957;28;20253;-86
2023/11/29 08:46:58;;;;;;;10.83;7.20;;;4.50;99.90;;;;;;5094910;28;20272;-87
2023/11/29 08:49:24;;;;;;;11.77;7.20;;;4.60;99.90;;;;;;5104964;28;20171;-86
2023/11/29 08:51:51;;;;;;;10.00;6.90;;;4.70;99.90;;;;;;5106688;28;20180;-84
2023/11/29 08:54:16;;;;;;;10.80;6.83;;;4.80;99.90;;;;;;5059508;28;20177;-89
2023/11/29 08:56:44;;;;;;;9.53;7.33;;;5.00;99.90;;;;;;5071390;28;20306;-87
2023/11/29 08:59:09;;;;;;;9.67;6.97;;;5.20;99.90;;;;;;5057160;28;20172;-87
2023/11/29 09:01:35;;;;;;;11.67;6.10;;;5.20;99.90;;;;;;5059750;28;20192;-87
2023/11/29 09:04:01;;;;;;;12.10;6.33;;;5.30;99.90;;;;;;5059815;28;20185;-87
2023/11/29 09:06:30;;;;;;;9.40;6.10;;;5.30;99.90;;;;;;5073247;28;20367;-86
2023/11/29 09:08:55;;;;;;;10.57;6.67;;;5.50;99.90;;;;;;5070393;28;20165;-86
2023/11/29 09:11:25;;;;;;;9.07;5.63;;;5.50;99.90;;;;;;5051060;28;20188;-86
2023/11/29 09:13:50;;;;;;;9.70;5.90;;;5.60;99.90;;;;;;5071762;28;20199;-85
2023/11/29 09:16:17;;;;;;;9.03;6.23;;;5.70;99.90;;;;;;5078540;28;20190;-87
2023/11/29 09:18:44;;;;;;;8.13;6.13;;;5.70;99.90;;;;;;5078976;28;20172;-85
2023/11/29 09:21:10;;;;;;;8.37;5.63;;;5.90;99.90;;;;;;5089902;28;20235;-86
2023/11/29 09:23:39;;;;;;;14.57;6.87;;;5.80;99.90;;;;;;5089551;28;20261;-84
2023/11/29 09:26:04;;;;;;;8.33;5.40;;;6.00;99.90;;;;;;5070530;28;20680;-84
2023/11/29 09:28:30;;;;;;;8.67;6.17;;;6.10;99.90;;;;;;5067886;28;20195;-85
2023/11/29 09:31:00;;;;;;;8.70;5.83;;;6.30;99.90;;;;;;5085645;28;20259;-85
2023/11/29 09:33:27;;;;;;;11.77;8.13;;;6.50;99.90;;;;;;5073147;28;20191;-86
2023/11/29 09:35:54;;;;;;;8.37;6.00;;;6.80;99.90;;;;;;5089229;28;20199;-85
2023/11/29 09:38:21;;;;;;;9.37;6.10;;;6.80;99.90;;;;;;5092872;28;20285;-85
2023/11/29 09:40:47;;;;;;;9.90;6.27;;;6.90;99.90;;;;;;5092945;28;20168;-86
2023/11/29 09:43:13;;;;;;;9.90;5.67;;;6.80;99.90;;;;;;5094157;28;20164;-85
2023/11/29 09:45:39;;;;;;;9.47;6.10;;;6.70;99.90;;;;;;5073059;28;20275;-85
2023/11/29 09:48:05;;;;;;;6.50;4.90;;;6.80;99.90;;;;;;5071955;28;20172;-80
2023/11/29 09:50:33;;;;;;;8.20;5.57;;;6.80;99.90;;;;;;5083389;28;20274;-80
2023/11/29 09:52:59;;;;;;;11.47;5.63;;;6.50;99.90;;;;;;5072398;28;20159;-79
2023/11/29 09:55:28;;;;;;;10.30;6.07;;;6.60;99.90;;;;;;5079692;28;20171;-80
2023/11/29 09:57:55;;;;;;;8.97;6.10;;;6.50;99.90;;;;;;5100913;28;20250;-89
2023/11/29 10:00:21;;;;;;;10.30;5.43;;;6.60;99.90;;;;;;5085906;28;20202;-87
2023/11/29 10:02:47;;;;;;;7.53;5.40;;;6.60;99.90;;;;;;5075056;28;20332;-88
2023/11/29 10:05:16;;;;;;;11.00;6.17;;;6.40;99.90;;;;;;5071238;28;20191;-87
2023/11/29 10:07:42;;;;;;;11.37;6.07;;;6.40;99.90;;;;;;5061435;28;20181;-86
2023/11/29 10:10:10;;;;;;;11.00;5.97;;;6.40;99.90;;;;;;5057538;28;20165;-90
2023/11/29 10:12:41;;;;;;;10.27;5.60;;;6.40;99.90;;;;;;5055771;28;20184;-88
2023/11/29 10:15:10;;;;;;;8.87;5.70;;;6.50;99.90;;;;;;5072412;28;20161;-87
2023/11/29 10:17:41;;;;;;;11.43;6.23;;;6.60;99.90;;;;;;5068502;28;20173;-88
2023/11/29 10:20:07;;;;;;;10.43;6.23;;;6.80;99.90;;;;;;5057313;28;20192;-86
2023/11/29 10:22:34;;;;;;;9.90;6.10;;;7.00;99.90;;;;;;5053140;28;20173;-88
2023/11/29 10:25:24;;;;;;;11.43;5.83;;;7.20;99.90;;;;;;5054009;28;20251;-86
2023/11/29 10:27:50;;;;;;;8.57;4.37;;;7.20;99.90;;;;;;5053203;28;20292;-87
2023/11/29 10:30:19;;;;;;;9.17;4.63;;;7.00;99.90;;;;;;5053630;28;20184;-87
2023/11/29 10:32:46;;;;;;;8.10;4.77;;;6.80;99.90;;;;;;5053769;28;20179;-86
2023/11/29 10:35:13;;;;;;;8.90;4.70;;;6.90;99.90;;;;;;5055727;28;20263;-87
2023/11/29 10:37:55;;;;;;;12.90;6.23;;;6.90;99.90;;;;;;5058490;28;20184;-87
2023/11/29 10:40:21;;;;;;;7.73;4.50;;;7.00;99.90;;;;;;5068240;28;20180;-87
2023/11/29 10:42:53;;;;;;;12.07;6.67;;;6.90;99.90;;;;;;5053137;28;20212;-88
2023/11/29 10:45:20;;;;;;;8.10;4.73;;;6.80;99.90;;;;;;5056620;28;20215;-88
2023/11/29 10:48:07;;;;;;;9.47;5.07;;;6.90;99.90;;;;;;5056522;28;20217;-87
2023/11/29 10:50:37;;;;;;;9.07;4.87;;;6.60;99.90;;;;;;5056750;28;20180;-86
2023/11/29 10:53:03;;;;;;;11.27;5.27;;;6.40;99.90;;;;;;5057273;28;20165;-87
2023/11/29 10:55:35;;;;;;;9.83;5.13;;;6.40;99.90;;;;;;5057538;28;20539;-88
2023/11/29 10:58:13;;;;;;;6.47;4.50;;;6.60;99.90;;;;;;5057579;28;20188;-86
2023/11/29 11:00:44;;;;;;;7.70;5.60;;;6.60;99.90;;;;;;5056568;28;20193;-89
2023/11/29 11:03:42;;;;;;;13.60;5.20;;;6.50;99.90;;;;;;5056658;28;20184;-89
2023/11/29 11:06:23;;;;;;;13.73;5.93;;;6.50;99.90;;;;;;5058789;28;20673;-87
2023/11/29 11:08:49;;;;;;;11.97;5.40;;;6.50;99.90;;;;;;5067778;28;20204;-86
2023/11/29 11:11:40;;;;;;;9.47;5.13;;;6.60;99.90;;;;;;5067491;28;20714;-88
2023/11/29 11:14:27;;;;;;;7.20;4.53;;;6.60;99.90;;;;;;5057417;28;20161;-87
2023/11/29 11:17:18;;;;;;;7.57;4.80;;;6.60;99.90;;;;;;5057546;28;20518;-87
2023/11/29 11:19:45;;;;;;;15.57;6.33;;;6.60;99.90;;;;;;5056911;28;20185;-87
2023/11/29 11:22:23;;;;;;;8.27;4.83;;;6.60;99.90;;;;;;5057154;28;20645;-87
2023/11/29 11:24:56;;;;;;;8.03;4.80;;;6.50;99.90;;;;;;5057961;28;20172;-89
2023/11/29 11:27:38;;;;;;;6.57;4.67;;;6.40;99.90;;;;;;5060657;28;20342;-89
2023/11/29 11:30:17;;;;;;;8.70;4.97;;;6.40;99.90;;;;;;5071853;28;20203;-88
2023/11/29 11:32:47;;;;;;;7.63;5.20;;;6.50;99.90;;;;;;5072978;28;20184;-87
2023/11/29 11:37:46;;;;;;;8.17;5.63;;;6.30;99.90;;;;;;5072367;28;20177;-88
2023/11/29 11:40:12;;;;;;;9.40;5.37;;;6.60;99.90;;;;;;5058384;28;20180;-88
2023/11/29 11:42:39;;;;;;;13.73;5.20;;;6.70;99.90;;;;;;5057712;28;20208;-89
2023/11/29 11:45:09;;;;;;;11.13;5.20;;;6.60;99.90;;;;;;5060291;28;20173;-88
2023/11/29 11:47:39;;;;;;;8.63;5.20;;;6.60;99.90;;;;;;5064526;28;20689;-90
2023/11/29 11:50:06;;;;;;;9.27;5.53;;;6.60;99.90;;;;;;5057700;28;20204;-89
2023/11/29 11:52:34;;;;;;;11.20;6.03;;;6.60;99.90;;;;;;5057107;28;20169;-91
2023/11/29 11:55:06;;;;;;;9.47;5.60;;;6.70;99.90;;;;;;5061868;28;20240;-90
2023/11/29 11:57:33;;;;;;;9.47;5.37;;;6.70;99.90;;;;;;5061763;28;20177;-90
2023/11/29 11:59:59;;;;;;;7.70;5.70;;;6.90;99.90;;;;;;5058100;28;20178;-90
2023/11/29 12:02:26;;;;;;;14.83;5.57;;;6.70;99.90;;;;;;5057383;28;20177;-91
2023/11/29 12:04:51;;;;;;;10.50;5.43;;;6.80;99.90;;;;;;5058704;28;20193;-89
2023/11/29 12:07:17;;;;;;;10.03;5.20;;;6.70;99.90;;;;;;5057413;28;20223;-90
2023/11/29 12:09:46;;;;;;;9.10;5.90;;;6.70;99.90;;;;;;5057886;28;20203;-90
2023/11/29 12:12:14;;;;;;;9.37;5.63;;;6.60;99.90;;;;;;5061043;28;20181;-88
2023/11/29 12:14:41;;;;;;;12.43;5.93;;;6.70;99.90;;;;;;5062323;28;20208;-90
2023/11/29 12:17:07;;;;;;;9.90;6.13;;;6.90;99.90;;;;;;5060808;28;20172;-90
2023/11/29 12:19:33;;;;;;;10.07;6.30;;;7.00;99.90;;;;;;5064573;28;20252;-90
2023/11/29 12:22:01;;;;;;;7.43;5.60;;;7.10;99.90;;;;;;5059382;28;20211;-89
2023/11/29 12:24:39;;;;;;;10.47;6.20;;;7.20;99.90;;;;;;5055659;28;20181;-89
2023/11/29 12:27:08;;;;;;;9.70;6.17;;;7.00;99.90;;;;;;5056785;28;20212;-90
2023/11/29 12:29:37;;;;;;;10.33;6.10;;;7.10;99.90;;;;;;5071099;28;20173;-88
2023/11/29 12:32:07;;;;;;;9.83;5.63;;;7.30;99.90;;;;;;5089449;28;20176;-89
2023/11/29 12:34:36;;;;;;;10.13;6.07;;;7.10;99.90;;;;;;5074341;28;20255;-88
2023/11/29 12:37:04;;;;;;;10.73;6.20;;;7.10;99.90;;;;;;5062342;28;20605;-89
2023/11/29 12:39:33;;;;;;;11.50;6.53;;;7.20;99.90;;;;;;5055543;28;20177;-86
2023/11/29 12:42:03;;;;;;;10.57;6.07;;;7.30;99.90;;;;;;5071578;28;20585;-87
2023/11/29 12:44:30;;;;;;;10.30;5.90;;;7.30;99.90;;;;;;5087622;28;20249;-87
2023/11/29 12:46:56;;;;;;;9.97;6.10;;;7.50;99.90;;;;;;5092309;28;20235;-88
2023/11/29 12:49:22;;;;;;;10.27;6.13;;;7.50;99.90;;;;;;5078809;28;20164;-88
2023/11/29 12:51:47;;;;;;;11.90;5.87;;;7.60;99.90;;;;;;5078979;28;20206;-88